UPSVAC Airport Information Service

Ontario International Airport (700-799)

ICAO: KONT Country: United States
Latitude: 34.056 Longitude: -117.601
Latest Arrival : UPS2790 (KDFW-KONT) Latest Departure : UPS3094 (KONT-KBFI)


WX CaptureLIVE
Data provided by noaa.gov | Fetched at 16:35:36

METAR : KONT 281553Z 00000KT 9SM FEW200 SCT250 26/16 A3003 RMK AO2 SLP151 T02560161

TAF : KONT 281120Z 2812/2918 VRB05KT P6SM FEW250 FM282000 26011KT P6SM SCT250 FM290500 25006KT P6SM SKC


Runway Data for KONT
Data provided by openaviationdata.com

Runway ID Mag Var Hdg Length Elevation Surface ILS Freq ILS Id ILS Slope
08L 14 75° 12185 ft 944 ft Asphalt 109.7 IAOD 3
08R 14 75° 10187 ft 944 ft Concrete -- -- --
26L 14 255° 10187 ft 944 ft Concrete 111.35 ITWO 3
26R 14 255° 12185 ft 944 ft Asphalt 109.7 IONT 3

Ontario International Airport (700-799), United States
Use only for reference purposes



Not for navigational purposes.